Oconto, WI

6:20 PM CDT on March 30, 2017 (GMT -0500)
Oconto Municipal

Weather History for KOCQ - March, 2014

Change the Weather History Date:

Wednesday, March 12, 2014

  Actual Average Record
Temperature  
Mean Temperature 15 °F -  
Max Temperature 28 °F 37 °F 61 °F (2016)
Min Temperature 2 °F 16 °F 2 °F (2014)
Degree Days  
Heating Degree Days 50    
Moisture  
Dew Point 4 °F    
Average Humidity 61    
Maximum Humidity 81    
Minimum Humidity 35    
Precipitation  
Precipitation 0.00 in - - ()
Sea Level Pressure  
Sea Level Pressure 30.03 in    
Wind  
Wind Speed 10 mph (NE)    
Max Wind Speed 20 mph    
Max Gust Speed 25 mph    
Visibility 10 miles    
Events      
Averages and records for this station are not official NWS values.
T = Trace of Precipitation, MM = Missing Value Source: NWS Daily Summary

Daily Weather History Graph

Daily Weather History Graph

Search for Another Location

Airport or City:

Trip Planner

Search our weather history database for the weather conditions in past years. The results will help you decide how hot, cold, wet, or windy it might be!

Date:

Astronomy

Mar. 12, 2014 Rise Set
Actual Time 7:09 AM CDT 6:53 PM CDT
Civil Twilight 6:40 AM CDT 7:23 PM CDT
Nautical Twilight 6:06 AM CDT 7:57 PM CDT
Astronomical Twilight 5:32 AM CDT 8:31 PM CDT
Moon 3:17 PM CDT (3/12) 4:48 AM CDT (3/12)
Length of Visible Light 12h 42m
Length of Day
11h 44m
Waxing Gibbous, 85% of the Moon is Illuminated
Mar 12
Waxing Gibbous
Mar 16
Full
Mar 23
Last Quarter
Mar 30
New
Apr 7
First Quarter

Hourly Weather History & Observations

Time (CDT) Temp. Windchill Dew Point Humidity Pressure Visibility Wind Dir Wind Speed Gust Speed Precip Events Conditions
12:15 AM 28.9 °F 20.4 °F 21.6 °F 74% 29.88 in 10.0 mi ENE 9.2 mph - N/A   Overcast
12:35 AM 28.4 °F 19.7 °F 21.0 °F 74% 29.87 in 10.0 mi ENE 9.2 mph - N/A   Overcast
12:55 AM 28.0 °F 20.8 °F 20.7 °F 74% 29.88 in 10.0 mi ENE 6.9 mph - N/A   Overcast
1:15 AM 27.5 °F 21.1 °F 20.1 °F 74% 29.88 in 10.0 mi ENE 5.8 mph - N/A   Overcast
1:35 AM 27.1 °F 20.7 °F 18.7 °F 70% 29.88 in 10.0 mi ENE 5.8 mph - N/A   Scattered Clouds
1:55 AM 26.2 °F 17.8 °F 18.5 °F 73% 29.90 in 10.0 mi NE 8.1 mph - N/A   Clear
2:15 AM 26.4 °F 18.0 °F 18.5 °F 72% 29.90 in 10.0 mi NE 8.1 mph - N/A   Mostly Cloudy
2:30 AM 26.6 °F 14.3 °F 16.3 °F 65% 29.91 in 10.0 mi NNE 16.1 mph 20.7 mph N/A   Overcast
2:55 AM 25.7 °F 14.6 °F 16.0 °F 67% 29.90 in 10.0 mi NNE 12.7 mph 18.4 mph N/A   Overcast
3:15 AM 25.0 °F 13.6 °F 15.8 °F 68% 29.90 in 10.0 mi NNE 12.7 mph 20.7 mph N/A   Overcast
3:35 AM 23.7 °F 12.1 °F 13.6 °F 65% 29.90 in 10.0 mi NNE 12.7 mph 20.7 mph N/A   Overcast
3:55 AM 23.0 °F 9.6 °F 13.6 °F 67% 29.91 in 10.0 mi NNE 16.1 mph 25.3 mph N/A   Overcast
4:15 AM 22.5 °F 9.9 °F 13.5 °F 68% 29.91 in 10.0 mi NNE 13.8 mph - N/A   Overcast
4:30 AM 22.1 °F 11.3 °F 13.5 °F 69% 29.92 in 10.0 mi NNE 10.4 mph 16.1 mph N/A   Overcast
4:55 AM 21.0 °F 9.9 °F 12.0 °F 68% 29.93 in 10.0 mi North 10.4 mph - N/A   Overcast
5:15 AM 19.8 °F 5.4 °F 10.0 °F 66% 29.94 in 10.0 mi North 16.1 mph 21.9 mph N/A   Overcast
5:30 AM 19.0 °F 4.0 °F 9.0 °F 65% 29.95 in 10.0 mi NNE 17.3 mph 23.0 mph N/A   Overcast
5:55 AM 18.1 °F 3.4 °F 9.1 °F 68% 29.96 in 10.0 mi NNE 16.1 mph 21.9 mph N/A   Overcast
6:15 AM 17.6 °F 3.7 °F 9.1 °F 69% 29.97 in 10.0 mi North 13.8 mph 17.3 mph N/A   Overcast
6:35 AM 17.1 °F 5.0 °F 8.6 °F 69% 29.99 in 10.0 mi North 10.4 mph 18.4 mph N/A   Overcast
6:55 AM 16.2 °F 1.3 °F 8.1 °F 70% 29.99 in 10.0 mi NNE 15.0 mph 21.9 mph N/A   Overcast
7:15 AM 14.7 °F -1.1 °F 6.1 °F 69% 30.00 in 10.0 mi NNE 16.1 mph 25.3 mph N/A   Overcast
7:35 AM 13.6 °F -1.9 °F 5.0 °F 68% 30.00 in 10.0 mi NNE 15.0 mph 21.9 mph N/A   Overcast
7:55 AM 12.7 °F -2.5 °F 4.3 °F 69% 30.01 in 10.0 mi NNE 13.8 mph 23.0 mph N/A   Overcast
8:10 AM 12.2 °F -3.7 °F 3.6 °F 68% 30.02 in 10.0 mi NNE 15.0 mph 23.0 mph N/A   Overcast
8:35 AM 11.8 °F -3.0 °F 2.7 °F 67% 30.02 in 10.0 mi NNE 12.7 mph 20.7 mph N/A   Mostly Cloudy
8:55 AM 12.0 °F -2.7 °F 2.5 °F 66% 30.03 in 10.0 mi NNE 12.7 mph 21.9 mph N/A   Scattered Clouds
9:15 AM 12.4 °F -2.9 °F 2.1 °F 64% 30.04 in 10.0 mi North 13.8 mph 21.9 mph N/A   Clear
9:35 AM 12.0 °F -3.4 °F -0.9 °F 56% 30.04 in 10.0 mi North 13.8 mph 24.2 mph N/A   Scattered Clouds
9:55 AM 12.2 °F -3.7 °F -2.6 °F 52% 30.04 in 10.0 mi NNE 15.0 mph 24.2 mph N/A   Scattered Clouds
10:15 AM 12.2 °F -3.7 °F -3.6 °F 49% 30.05 in 10.0 mi North 15.0 mph 25.3 mph N/A   Clear
10:35 AM 12.9 °F -3.4 °F -3.5 °F 48% 30.05 in 10.0 mi NNE 16.1 mph 20.7 mph N/A   Clear
10:55 AM 13.3 °F -1.8 °F -3.8 °F 47% 30.05 in 10.0 mi North 13.8 mph 19.6 mph N/A   Clear
11:15 AM 14.0 °F -3.4 °F -3.6 °F 46% 30.05 in 10.0 mi North 19.6 mph 25.3 mph N/A   Clear
11:35 AM 14.4 °F -0.4 °F -3.3 °F 46% 30.05 in 10.0 mi North 13.8 mph - N/A   Clear
11:55 AM 14.9 °F 0.3 °F -2.7 °F 46% 30.05 in 10.0 mi North 13.8 mph 18.4 mph N/A   Clear
12:15 PM 15.6 °F 1.8 °F -2.4 °F 45% 30.06 in 10.0 mi NNE 12.7 mph 19.6 mph N/A   Clear
12:35 PM 16.2 °F 1.3 °F -4.0 °F 41% 30.06 in 10.0 mi NNE 15.0 mph 19.6 mph N/A   Clear
12:55 PM 16.7 °F 3.2 °F -2.4 °F 43% 30.05 in 10.0 mi North 12.7 mph 17.3 mph N/A   Clear
1:15 PM 17.1 °F 4.3 °F -2.0 °F 43% 30.05 in 10.0 mi NNE 11.5 mph 20.7 mph N/A   Clear
1:35 PM 17.6 °F 5.0 °F -3.1 °F 40% 30.04 in 10.0 mi North 11.5 mph 16.1 mph N/A   Clear
1:55 PM 18.3 °F 7.3 °F -1.7 °F 42% 30.04 in 10.0 mi North 9.2 mph - N/A   Clear
2:15 PM 18.7 °F 7.0 °F -3.3 °F 38% 30.04 in 10.0 mi North 10.4 mph - N/A   Clear
2:30 PM 18.9 °F 7.2 °F -3.1 °F 38% 30.04 in 10.0 mi NNE 10.4 mph - N/A   Clear
2:55 PM 19.2 °F 10.2 °F -3.1 °F 37% 30.04 in 10.0 mi NE 6.9 mph 10.4 mph N/A   Clear
3:15 PM 19.9 °F 8.6 °F -2.9 °F 37% 30.04 in 10.0 mi North 10.4 mph - N/A   Clear
3:35 PM 19.9 °F 10.1 °F -4.2 °F 35% 30.04 in 10.0 mi North 8.1 mph - N/A   Clear
3:55 PM 18.7 °F 10.6 °F 1.8 °F 48% 30.05 in 10.0 mi East 5.8 mph - N/A   Clear
4:15 PM 17.6 °F 5.7 °F 3.7 °F 55% 30.06 in 10.0 mi ESE 10.4 mph - N/A   Clear
4:35 PM 17.1 °F 5.0 °F 5.0 °F 59% 30.06 in 10.0 mi ESE 10.4 mph - N/A   Clear
4:55 PM 16.7 °F 7.2 °F 4.3 °F 58% 30.06 in 10.0 mi East 6.9 mph - N/A   Clear
5:15 PM 15.4 °F 4.6 °F 4.1 °F 61% 30.07 in 10.0 mi ESE 8.1 mph - N/A   Clear
5:35 PM 14.9 °F 4.0 °F 3.6 °F 61% 30.07 in 10.0 mi East 8.1 mph - N/A   Clear
5:55 PM 14.5 °F 3.6 °F 3.2 °F 61% 30.08 in 10.0 mi East 8.1 mph - N/A   Clear
6:10 PM 14.0 °F 2.9 °F 3.2 °F 62% 30.08 in 10.0 mi East 8.1 mph - N/A   Clear
6:35 PM 12.9 °F 2.6 °F 2.3 °F 63% 30.08 in 10.0 mi East 6.9 mph - N/A   Clear
6:55 PM 11.5 °F -0.2 °F 1.4 °F 64% 30.09 in 10.0 mi ESE 8.1 mph - N/A   Clear
7:15 PM 10.9 °F 1.4 °F 1.2 °F 65% 30.09 in 10.0 mi East 5.8 mph - N/A   Clear
7:35 PM 10.4 °F 4.0 °F 1.0 °F 66% 30.10 in 10.0 mi East 3.5 mph - N/A   Clear
7:50 PM 10.4 °F 4.0 °F 0.3 °F 64% 30.10 in 10.0 mi East 3.5 mph - N/A   Clear
8:15 PM 9.5 °F 3.0 °F 0.5 °F 67% 30.11 in 10.0 mi ENE 3.5 mph - N/A   Clear
8:35 PM 9.5 °F 3.0 °F 0.5 °F 67% 30.11 in 10.0 mi ENE 3.5 mph - N/A   Clear
8:55 PM 9.1 °F 0.8 °F 0.1 °F 67% 30.12 in 10.0 mi East 4.6 mph - N/A   Clear
9:15 PM 9.0 °F - -0.2 °F 66% 30.13 in 10.0 mi Calm Calm - N/A   Clear
9:35 PM 8.6 °F - -0.2 °F 67% 30.13 in 10.0 mi Calm Calm - N/A   Clear
9:55 PM 8.6 °F 2.0 °F -0.4 °F 67% 30.13 in 10.0 mi East 3.5 mph - N/A   Clear
10:15 PM 8.1 °F - -0.4 °F 68% 30.13 in 10.0 mi Calm Calm - N/A   Clear
10:35 PM 6.4 °F - -1.1 °F 71% 30.13 in 10.0 mi Calm Calm - N/A   Clear
10:36 PM 6.8 °F - -0.4 °F 72% 30.13 in 10.0 mi Calm Calm - N/A   Clear
10:55 PM 5.5 °F - -1.3 °F 73% 30.12 in 10.0 mi Calm Calm - N/A   Clear
11:15 PM 5.0 °F - -1.3 °F 75% 30.12 in 10.0 mi Calm Calm - N/A   Clear
11:35 PM 2.8 °F - -2.6 °F 78% 30.12 in 10.0 mi Calm Calm - N/A   Clear
11:55 PM 2.1 °F -5.4 °F -2.4 °F 81% 30.12 in 10.0 mi ENE 3.5 mph - N/A   Clear